Terminal Aerodrome Forecast
Issued by NWS

Home | Current Version | Previous Version | Text Only | Print | Product List | Glossary On
Versions: 1 2 3 4 5 6 7 8 9 10 11 12 13 14 15 16 17 18
033
FTUS43 KLSX 301740
TAFCPS
TAF
KCPS 301740Z 3018/3118 14005KT P6SM SCT050 BKN250
     FM310100 VRB03KT P6SM SCT100 BKN250
     FM311500 13006KT P6SM SCT040 BKN100=

USA.gov is the U.S. government's official web portal to all federal, state and local government web resources and services.